Point Comfort, Texas
Current Conditions -  °F | °C
As of 3:15 PM on Sunday 23 Nov 2014 (Local Time) from KPKV Reporting Station
Clear Clear  
Wind Chill: 79°   Ceiling: Unl
Heat Index: 80°   Visibility: 10mi
Dew Point: 61°   Wind: 10mph
Humidity: 54%   Direction: 190°S
Pressure: 29.57"   Gusts: NA
Location:  28.68°N, 96.56°W
Report Text: KPKV 232115Z AUTO 19009KT 10SM CLR 26/16 A2957 RMK AO2 T02600160
Loading
Personal Weather Stations






























Interactive Weather Map New forecast layout! Learn more

10-Day Weather Forecast

Advertisements
Track Severe Weather on mobile